createdAt,value
2023-01-26T00:00:58.180Z,0.76
2023-01-26T00:03:28.498Z,0.48
2023-01-26T00:05:58.161Z,0.50
2023-01-26T00:08:27.902Z,0.44
2023-01-26T00:11:00.123Z,0.65
2023-01-26T00:13:29.819Z,0.65
2023-01-26T00:15:59.470Z,0.61
2023-01-26T00:18:29.158Z,0.70
2023-01-26T00:20:59.548Z,0.47
2023-01-26T00:23:30.894Z,0.92
2023-01-26T00:26:03.265Z,0.93
2023-01-26T00:28:32.938Z,0.89
2023-01-26T00:31:07.833Z,0.57
2023-01-26T00:33:39.484Z,0.57
2023-01-26T00:36:10.525Z,0.81
2023-01-26T00:38:40.181Z,0.86
2023-01-26T00:41:34.954Z,0.88
2023-01-26T00:44:04.993Z,0.80
2023-01-26T00:46:34.656Z,0.84
2023-01-26T00:49:04.325Z,0.82
2023-01-26T00:51:36.251Z,0.79
2023-01-26T00:54:07.148Z,0.87
2023-01-26T00:56:39.389Z,0.70
2023-01-26T00:59:09.064Z,0.77
2023-01-26T01:01:39.667Z,0.59
2023-01-26T01:04:09.470Z,0.60
2023-01-26T01:06:39.369Z,0.59
2023-01-26T01:09:09.288Z,0.57
2023-01-26T01:11:43.118Z,0.39
2023-01-26T01:14:13.292Z,0.40
2023-01-26T01:16:43.159Z,0.42
2023-01-26T01:19:17.036Z,0.66
2023-01-26T01:21:47.617Z,0.43
2023-01-26T01:24:17.443Z,0.59
2023-01-26T01:26:49.733Z,0.71
2023-01-26T01:29:19.444Z,0.60
2023-01-26T01:31:49.184Z,0.64
2023-01-26T01:34:18.801Z,0.82
2023-01-26T01:36:48.429Z,1.05
2023-01-26T01:39:18.113Z,1.20
2023-01-26T01:41:50.372Z,1.16
2023-01-26T01:44:23.284Z,1.20
2023-01-26T01:46:58.047Z,1.22
2023-01-26T01:49:31.210Z,1.17
2023-01-26T01:52:06.963Z,1.15
2023-01-26T01:54:40.401Z,1.23
2023-01-26T01:57:18.345Z,1.30
2023-01-26T01:59:57.185Z,1.29
2023-01-26T02:02:26.922Z,1.41
2023-01-26T02:04:59.820Z,1.50
2023-01-26T02:07:31.602Z,1.47
2023-01-26T02:10:16.229Z,1.34
2023-01-26T02:12:50.541Z,1.47
2023-01-26T02:15:20.570Z,1.44
2023-01-26T02:17:50.329Z,1.48
2023-01-26T02:20:28.769Z,1.52
2023-01-26T02:23:04.521Z,1.24
2023-01-26T02:25:42.708Z,1.49
2023-01-26T02:28:15.438Z,1.50
2023-01-26T02:30:45.114Z,1.47
2023-01-26T02:33:17.821Z,1.57
2023-01-26T02:35:47.752Z,1.46
2023-01-26T02:38:17.924Z,1.49
2023-01-26T02:40:53.346Z,1.50
2023-01-26T02:43:25.832Z,1.59
2023-01-26T02:45:55.782Z,1.63
2023-01-26T02:48:38.432Z,1.62
2023-01-26T02:51:08.725Z,1.66
2023-01-26T02:53:38.438Z,1.26
2023-01-26T02:56:06.283Z,1.34
2023-01-26T02:58:39.034Z,1.42
2023-01-26T03:01:08.776Z,1.39
2023-01-26T03:03:49.862Z,1.22
2023-01-26T03:06:19.611Z,1.12
2023-01-26T03:08:49.287Z,1.21
2023-01-26T03:11:18.885Z,1.33
2023-01-26T03:13:51.189Z,1.48
2023-01-26T03:16:20.874Z,1.36
2023-01-26T03:19:18.075Z,1.44
2023-01-26T03:22:00.376Z,1.27
2023-01-26T03:24:42.627Z,1.33
2023-01-26T03:27:25.184Z,1.37
2023-01-26T03:29:58.031Z,1.34
2023-01-26T03:32:28.515Z,1.40
2023-01-26T03:34:58.270Z,1.09
2023-01-26T03:37:34.542Z,1.34
2023-01-26T03:40:22.098Z,1.34
2023-01-26T03:43:05.392Z,0.93
2023-01-26T03:45:50.261Z,1.11
2023-01-26T03:48:33.848Z,1.17
2023-01-26T03:51:18.223Z,1.27
2023-01-26T03:54:00.460Z,1.27
2023-01-26T03:56:32.794Z,1.24
2023-01-26T03:59:12.351Z,1.27
2023-01-26T04:02:01.542Z,1.39
2023-01-26T04:04:44.021Z,1.28
2023-01-26T04:07:27.086Z,1.36
2023-01-26T04:09:56.726Z,1.42
2023-01-26T04:12:26.410Z,1.37
2023-01-26T04:15:23.414Z,1.53
2023-01-26T04:18:08.360Z,1.44
2023-01-26T04:20:50.647Z,1.46
2023-01-26T04:23:20.991Z,1.35
2023-01-26T04:25:53.051Z,1.49
2023-01-26T04:28:22.699Z,1.31
2023-01-26T04:30:52.509Z,1.55
2023-01-26T04:33:24.762Z,1.65
2023-01-26T04:35:54.468Z,1.53
2023-01-26T04:38:24.169Z,1.42
2023-01-26T04:40:56.178Z,1.51
2023-01-26T04:43:26.522Z,1.51
2023-01-26T04:46:03.411Z,1.25
2023-01-26T04:48:38.628Z,1.63
2023-01-26T04:51:10.608Z,1.49
2023-01-26T04:53:40.363Z,1.53
2023-01-26T04:56:11.805Z,1.52
2023-01-26T04:58:41.458Z,1.44
2023-01-26T05:01:11.784Z,1.37
2023-01-26T05:03:44.110Z,1.51
2023-01-26T05:06:14.945Z,1.47
2023-01-26T05:08:47.257Z,1.51
2023-01-26T05:11:17.186Z,1.18
2023-01-26T05:14:09.885Z,1.48
2023-01-26T05:16:57.984Z,1.24
2023-01-26T05:19:40.880Z,1.52
2023-01-26T05:22:35.136Z,1.61
2023-01-26T05:25:33.779Z,1.58
2023-01-26T05:28:10.475Z,1.53
2023-01-26T05:30:40.284Z,1.32
2023-01-26T05:33:12.770Z,1.76
2023-01-26T05:35:45.246Z,1.77
2023-01-26T05:38:14.919Z,1.79
2023-01-26T05:40:44.657Z,1.79
2023-01-26T05:43:15.381Z,1.80
2023-01-26T05:46:03.889Z,1.52
2023-01-26T05:48:33.566Z,1.63
2023-01-26T05:51:06.473Z,1.67
2023-01-26T05:53:38.499Z,1.54
2023-01-26T05:56:08.620Z,1.59
2023-01-26T05:58:41.289Z,1.59
2023-01-26T06:01:11.099Z,1.57
2023-01-26T06:03:49.995Z,1.57
2023-01-26T06:06:22.319Z,1.51
2023-01-26T06:08:56.146Z,1.34
2023-01-26T06:11:35.468Z,1.25
2023-01-26T06:14:17.212Z,1.32
2023-01-26T06:16:47.096Z,1.39
2023-01-26T06:19:16.944Z,1.36
2023-01-26T06:21:54.452Z,1.45
2023-01-26T06:24:26.544Z,1.49
2023-01-26T06:26:56.192Z,1.58
2023-01-26T06:29:25.918Z,1.55
2023-01-26T06:31:55.865Z,1.51
2023-01-26T06:34:25.562Z,1.54
2023-01-26T06:36:57.869Z,1.49
2023-01-26T06:39:32.798Z,1.57
2023-01-26T06:42:03.635Z,1.59
2023-01-26T06:44:33.343Z,1.60
2023-01-26T06:47:03.100Z,1.34
2023-01-26T06:49:33.183Z,1.48
2023-01-26T06:52:25.062Z,1.28
2023-01-26T06:54:56.473Z,1.40
2023-01-26T06:57:44.784Z,1.34
2023-01-26T07:00:33.022Z,1.62
2023-01-26T07:03:21.622Z,1.40
2023-01-26T07:05:51.259Z,1.21
2023-01-26T07:08:23.498Z,1.48
2023-01-26T07:10:53.918Z,1.43
2023-01-26T07:13:23.564Z,1.40
2023-01-26T07:15:53.202Z,1.36
2023-01-26T07:18:22.861Z,1.24
2023-01-26T07:20:52.502Z,1.44
2023-01-26T07:23:24.760Z,1.38
2023-01-26T07:25:54.410Z,1.38
2023-01-26T07:28:25.875Z,1.43
2023-01-26T07:30:55.738Z,1.58
2023-01-26T07:33:25.454Z,1.58
2023-01-26T07:35:55.793Z,1.57
2023-01-26T07:38:29.319Z,1.64
2023-01-26T07:40:59.654Z,1.36
2023-01-26T07:43:29.283Z,1.54
2023-01-26T07:45:58.906Z,1.61
2023-01-26T07:48:29.880Z,1.52
2023-01-26T07:51:03.718Z,1.36
2023-01-26T07:53:39.574Z,1.41
2023-01-26T07:56:11.857Z,1.37
2023-01-26T07:58:42.326Z,1.53
2023-01-26T08:01:13.578Z,1.49
2023-01-26T08:03:45.532Z,1.63
2023-01-26T08:06:17.105Z,1.57
2023-01-26T08:08:53.103Z,1.56
2023-01-26T08:11:24.445Z,1.55
2023-01-26T08:13:54.299Z,1.67
2023-01-26T08:16:24.153Z,1.75
2023-01-26T08:18:53.955Z,1.77
2023-01-26T08:21:23.598Z,1.75
2023-01-26T08:23:55.945Z,1.74
2023-01-26T08:26:25.548Z,1.82
2023-01-26T08:28:55.210Z,1.82
2023-01-26T08:31:25.529Z,1.84
2023-01-26T08:33:55.971Z,1.94
2023-01-26T08:36:25.996Z,1.95
2023-01-26T08:38:58.244Z,1.93
2023-01-26T08:41:27.906Z,1.90
2023-01-26T08:43:59.372Z,1.63
2023-01-26T08:46:29.086Z,1.80
2023-01-26T08:49:00.401Z,1.91
2023-01-26T08:51:30.277Z,1.94
2023-01-26T08:54:02.498Z,1.85
2023-01-26T08:56:32.148Z,1.95
2023-01-26T08:59:01.796Z,1.96
2023-01-26T09:01:31.526Z,2.63
2023-01-26T09:04:01.809Z,2.39
2023-01-26T09:06:33.164Z,2.24
2023-01-26T09:09:05.424Z,2.26
2023-01-26T09:11:35.034Z,1.92
2023-01-26T09:14:07.451Z,1.91
2023-01-26T09:16:37.118Z,1.92
2023-01-26T09:19:06.800Z,2.03
2023-01-26T09:21:36.417Z,2.11
2023-01-26T09:24:09.495Z,1.86
2023-01-26T09:26:39.264Z,2.10
2023-01-26T09:29:08.999Z,2.19
2023-01-26T09:31:39.383Z,2.30
2023-01-26T09:34:09.352Z,2.45
2023-01-26T09:36:41.427Z,2.34
2023-01-26T09:39:13.755Z,2.31
2023-01-26T09:41:54.663Z,2.31
2023-01-26T09:44:27.742Z,2.52
2023-01-26T09:47:06.724Z,2.52
2023-01-26T09:49:49.705Z,2.51
2023-01-26T09:52:29.067Z,2.61
2023-01-26T09:55:03.613Z,2.71
2023-01-26T09:57:39.258Z,2.64
2023-01-26T10:00:12.759Z,2.70
2023-01-26T10:02:55.406Z,2.49
2023-01-26T10:05:34.979Z,2.66
2023-01-26T10:08:13.558Z,2.71
2023-01-26T10:10:50.228Z,2.81
2023-01-26T10:13:21.096Z,2.57
2023-01-26T10:15:54.893Z,2.73
2023-01-26T10:18:31.238Z,2.63
2023-01-26T10:21:04.301Z,2.54
2023-01-26T10:23:35.503Z,2.67
2023-01-26T10:26:15.662Z,2.62
2023-01-26T10:28:46.718Z,2.34
2023-01-26T10:31:19.456Z,2.57
2023-01-26T10:33:54.909Z,2.62
2023-01-26T10:36:25.369Z,2.66
2023-01-26T10:38:55.286Z,2.70
2023-01-26T10:41:29.944Z,2.23
2023-01-26T10:44:02.595Z,2.67
2023-01-26T10:46:35.700Z,2.80
2023-01-26T10:49:16.592Z,2.57
2023-01-26T10:51:48.083Z,2.49
2023-01-26T10:54:26.001Z,2.82
2023-01-26T10:57:00.512Z,2.79
2023-01-26T10:59:36.117Z,2.85
2023-01-26T11:02:23.692Z,2.94
2023-01-26T11:05:18.395Z,3.00
2023-01-26T11:07:49.636Z,3.06
2023-01-26T11:10:25.392Z,3.15
2023-01-26T11:13:10.991Z,3.20
2023-01-26T11:15:44.094Z,3.21
2023-01-26T11:18:23.650Z,3.16
2023-01-26T11:21:00.325Z,3.21
2023-01-26T11:23:48.902Z,3.06
2023-01-26T11:26:51.245Z,2.97
2023-01-26T11:30:03.298Z,3.07
2023-01-26T11:32:43.695Z,2.92
2023-01-26T11:35:23.875Z,3.26
2023-01-26T11:38:04.682Z,3.16
2023-01-26T11:40:44.042Z,3.10
2023-01-26T11:43:32.824Z,3.05
2023-01-26T11:46:25.404Z,3.08
2023-01-26T11:49:11.138Z,3.17
2023-01-26T11:51:53.534Z,3.19
2023-01-26T11:54:40.291Z,3.20
2023-01-26T11:57:23.913Z,3.14
2023-01-26T11:59:58.132Z,3.05
2023-01-26T12:02:34.501Z,3.20
2023-01-26T12:05:08.887Z,3.19
2023-01-26T12:07:57.241Z,3.06
2023-01-26T12:10:32.522Z,3.10
2023-01-26T12:13:10.776Z,3.13
2023-01-26T12:15:47.671Z,3.14
2023-01-26T12:18:38.129Z,3.18
2023-01-26T12:21:15.114Z,3.21
2023-01-26T12:23:50.695Z,3.18
2023-01-26T12:26:23.396Z,3.23
2023-01-26T12:29:10.141Z,3.22
2023-01-26T12:31:48.742Z,3.17
2023-01-26T12:34:28.207Z,3.18
2023-01-26T12:37:15.432Z,3.13
2023-01-26T12:39:48.471Z,3.52
2023-01-26T12:42:31.823Z,4.08
2023-01-26T12:45:02.992Z,4.03
2023-01-26T12:47:36.179Z,5.01
2023-01-26T12:50:18.623Z,4.48
2023-01-26T12:52:53.626Z,4.36
2023-01-26T12:55:27.576Z,4.06
2023-01-26T12:58:00.645Z,3.88
2023-01-26T13:00:34.057Z,3.94
2023-01-26T13:03:08.374Z,3.80
2023-01-26T13:05:58.372Z,3.68
2023-01-26T13:08:51.548Z,3.60
2023-01-26T13:11:50.863Z,3.72
2023-01-26T13:14:33.411Z,3.72
2023-01-26T13:17:32.918Z,3.70
2023-01-26T13:20:17.411Z,3.58
2023-01-26T13:22:49.665Z,3.57
2023-01-26T13:25:21.811Z,3.64
2023-01-26T13:27:59.232Z,3.58
2023-01-26T13:30:47.576Z,3.67
2023-01-26T13:33:21.474Z,3.64
2023-01-26T13:35:52.869Z,3.65
2023-01-26T13:38:33.363Z,3.59
2023-01-26T13:41:04.805Z,3.64
2023-01-26T13:43:39.922Z,3.67
2023-01-26T13:46:21.415Z,3.74
2023-01-26T13:48:52.585Z,3.42
2023-01-26T13:51:24.934Z,3.54
2023-01-26T13:54:06.483Z,3.42
2023-01-26T13:56:39.039Z,3.54
2023-01-26T13:59:14.302Z,3.51
2023-01-26T14:01:49.021Z,3.63
2023-01-26T14:04:21.523Z,3.55
2023-01-26T14:06:56.425Z,3.65
2023-01-26T14:09:30.456Z,3.66
2023-01-26T14:12:03.516Z,3.69
2023-01-26T14:14:37.830Z,3.65
2023-01-26T14:17:09.821Z,3.68
2023-01-26T14:19:43.306Z,3.64
2023-01-26T14:22:18.683Z,3.55
2023-01-26T14:24:54.941Z,3.58
2023-01-26T14:27:38.799Z,3.50
2023-01-26T14:30:25.621Z,3.58
2023-01-26T14:33:01.564Z,3.57
2023-01-26T14:35:31.218Z,3.40
2023-01-26T14:38:19.246Z,3.56
2023-01-26T14:40:53.096Z,3.50
2023-01-26T14:43:23.648Z,3.38
2023-01-26T14:45:58.480Z,3.47
2023-01-26T14:48:34.567Z,3.33
2023-01-26T14:51:08.729Z,3.66
2023-01-26T14:53:38.391Z,3.60
2023-01-26T14:56:20.821Z,3.49
2023-01-26T14:58:54.570Z,3.67
2023-01-26T15:01:26.673Z,3.62
2023-01-26T15:04:02.747Z,3.75
2023-01-26T15:06:34.112Z,3.76
2023-01-26T15:09:06.689Z,3.61
2023-01-26T15:11:53.775Z,3.75
2023-01-26T15:14:35.315Z,3.77
2023-01-26T15:17:06.027Z,3.76
2023-01-26T15:19:43.674Z,3.65
2023-01-26T15:22:23.988Z,3.57
2023-01-26T15:25:05.610Z,3.61
2023-01-26T15:27:39.810Z,3.78
2023-01-26T15:30:18.936Z,3.45
2023-01-26T15:32:48.722Z,3.77
2023-01-26T15:35:26.683Z,3.87
2023-01-26T15:38:04.043Z,3.84
2023-01-26T15:40:34.342Z,3.85
2023-01-26T15:43:17.534Z,3.83
2023-01-26T15:45:53.566Z,3.88
2023-01-26T15:48:24.252Z,3.82
2023-01-26T15:50:53.973Z,3.77
2023-01-26T15:53:25.223Z,3.50
2023-01-26T15:55:56.395Z,3.58
2023-01-26T15:58:29.076Z,3.64
2023-01-26T16:00:59.195Z,3.70
2023-01-26T16:03:28.980Z,3.70
2023-01-26T16:05:58.675Z,3.70
2023-01-26T16:08:28.453Z,3.63
2023-01-26T16:10:59.700Z,3.83
2023-01-26T16:13:34.024Z,3.82
2023-01-26T16:16:03.840Z,3.80
2023-01-26T16:18:33.503Z,3.77
2023-01-26T16:21:03.173Z,3.82
2023-01-26T16:23:33.041Z,3.68
2023-01-26T16:26:02.734Z,3.78
2023-01-26T16:28:35.053Z,3.88
2023-01-26T16:31:05.170Z,3.80
2023-01-26T16:33:34.916Z,3.81
2023-01-26T16:36:04.556Z,3.88
2023-01-26T16:38:34.245Z,3.95
2023-01-26T16:41:03.994Z,3.89
2023-01-26T16:43:36.263Z,3.99
2023-01-26T16:46:06.012Z,3.98
2023-01-26T16:48:36.112Z,3.83
2023-01-26T16:51:17.845Z,3.96
2023-01-26T16:53:47.878Z,3.90
2023-01-26T16:56:19.407Z,3.98
2023-01-26T16:58:51.755Z,4.00
2023-01-26T17:01:23.775Z,3.92
2023-01-26T17:03:54.195Z,4.17
2023-01-26T17:06:24.392Z,4.20
2023-01-26T17:08:54.094Z,4.13
2023-01-26T17:11:27.764Z,3.94
2023-01-26T17:14:00.649Z,4.20
2023-01-26T17:16:33.036Z,4.01
2023-01-26T17:19:03.059Z,4.10
2023-01-26T17:21:32.797Z,4.34
2023-01-26T17:24:02.501Z,4.18
2023-01-26T17:26:32.368Z,4.17
2023-01-26T17:29:04.621Z,4.19
2023-01-26T17:31:35.164Z,4.33
2023-01-26T17:34:04.841Z,4.39
2023-01-26T17:36:34.669Z,4.43
2023-01-26T17:39:04.365Z,4.45
2023-01-26T17:41:34.066Z,4.42
2023-01-26T17:44:06.434Z,4.52
2023-01-26T17:46:36.082Z,4.25
2023-01-26T17:49:06.266Z,4.39
2023-01-26T17:51:36.034Z,4.41
2023-01-26T17:54:05.917Z,4.57
2023-01-26T17:56:35.579Z,4.59
2023-01-26T17:59:07.821Z,4.64
2023-01-26T18:01:37.525Z,4.57
2023-01-26T18:04:07.342Z,4.57
2023-01-26T18:06:38.693Z,4.36
2023-01-26T18:09:08.450Z,4.53
2023-01-26T18:11:38.127Z,4.59
2023-01-26T18:14:12.657Z,4.65
2023-01-26T18:16:42.363Z,4.75
2023-01-26T18:19:12.122Z,4.70
2023-01-26T18:21:41.843Z,4.63
2023-01-26T18:24:11.546Z,4.57
2023-01-26T18:26:41.495Z,4.43
2023-01-26T18:29:14.877Z,4.61
2023-01-26T18:31:44.571Z,4.39
2023-01-26T18:34:14.848Z,4.54
2023-01-26T18:36:44.519Z,4.58
2023-01-26T18:39:16.874Z,4.48
2023-01-26T18:41:46.547Z,4.54
2023-01-26T18:44:18.791Z,4.56
2023-01-26T18:46:48.430Z,4.50
2023-01-26T18:49:18.089Z,4.43
2023-01-26T18:51:49.169Z,4.43
2023-01-26T18:54:20.140Z,4.37
2023-01-26T18:56:49.950Z,4.40
2023-01-26T18:59:22.183Z,4.40
2023-01-26T19:01:51.964Z,4.51
2023-01-26T19:04:21.612Z,4.62
2023-01-26T19:06:51.257Z,4.57
2023-01-26T19:09:21.419Z,4.66
2023-01-26T19:11:51.432Z,4.60
2023-01-26T19:14:23.623Z,4.60
2023-01-26T19:16:53.952Z,4.43
2023-01-26T19:19:23.810Z,4.53
2023-01-26T19:21:53.572Z,4.38
2023-01-26T19:24:23.478Z,4.62
2023-01-26T19:26:53.094Z,4.60
2023-01-26T19:29:25.355Z,4.41
2023-01-26T19:31:55.056Z,4.87
2023-01-26T19:34:24.787Z,4.92
2023-01-26T19:36:54.652Z,4.93
2023-01-26T19:39:24.508Z,5.02
2023-01-26T19:41:54.145Z,5.00
2023-01-26T19:44:26.621Z,5.05
2023-01-26T19:46:57.022Z,5.09
2023-01-26T19:49:26.886Z,5.22
2023-01-26T19:51:56.775Z,5.24
2023-01-26T19:54:26.549Z,5.28
2023-01-26T19:56:56.207Z,5.30
2023-01-26T19:59:28.543Z,5.23
2023-01-26T20:01:58.540Z,5.23
2023-01-26T20:04:28.270Z,5.23
2023-01-26T20:06:57.973Z,5.32
2023-01-26T20:09:27.617Z,5.31
2023-01-26T20:11:57.284Z,5.24
2023-01-26T20:14:29.687Z,5.24
2023-01-26T20:16:59.747Z,5.22
2023-01-26T20:19:29.561Z,4.88
2023-01-26T20:22:00.035Z,5.00
2023-01-26T20:24:30.045Z,5.04
2023-01-26T20:27:00.313Z,4.98
2023-01-26T20:29:32.794Z,4.90
2023-01-26T20:32:02.973Z,4.78
2023-01-26T20:34:32.646Z,4.72
2023-01-26T20:37:02.297Z,4.75
2023-01-26T20:39:31.890Z,4.60
2023-01-26T20:42:01.570Z,4.34
2023-01-26T20:44:33.900Z,4.46
2023-01-26T20:47:04.491Z,4.36
2023-01-26T20:49:34.464Z,4.02
2023-01-26T20:52:06.125Z,3.83
2023-01-26T20:54:36.513Z,3.76
2023-01-26T20:57:07.974Z,4.06
2023-01-26T20:59:40.283Z,3.97
2023-01-26T21:02:14.770Z,3.64
2023-01-26T21:04:45.169Z,3.83
2023-01-26T21:07:14.939Z,3.87
2023-01-26T21:09:44.621Z,3.87
2023-01-26T21:12:14.312Z,3.94
2023-01-26T21:14:46.876Z,3.94
2023-01-26T21:17:17.519Z,3.96
2023-01-26T21:19:47.206Z,3.95
2023-01-26T21:22:16.869Z,3.92
2023-01-26T21:24:47.358Z,3.84
2023-01-26T21:27:18.149Z,3.87
2023-01-26T21:29:50.402Z,3.90
2023-01-26T21:32:20.039Z,3.91
2023-01-26T21:34:49.709Z,3.79
2023-01-26T21:37:19.366Z,3.96
2023-01-26T21:39:49.031Z,3.87
2023-01-26T21:42:18.636Z,3.96
2023-01-26T21:45:03.437Z,3.88
2023-01-26T21:47:33.125Z,3.95
2023-01-26T21:50:02.781Z,3.98
2023-01-26T21:52:44.922Z,3.95
2023-01-26T21:55:14.572Z,3.89
2023-01-26T21:57:56.679Z,4.06
2023-01-26T22:00:30.582Z,4.05
2023-01-26T22:03:01.545Z,4.06
2023-01-26T22:05:31.178Z,4.10
2023-01-26T22:08:00.839Z,4.06
2023-01-26T22:10:30.551Z,4.07
2023-01-26T22:13:00.353Z,3.91
2023-01-26T22:15:32.610Z,4.12
2023-01-26T22:18:02.243Z,3.95
2023-01-26T22:20:31.903Z,4.02
2023-01-26T22:23:01.815Z,3.77
2023-01-26T22:25:31.578Z,3.90
2023-01-26T22:28:01.252Z,3.99
2023-01-26T22:30:33.829Z,4.04
2023-01-26T22:33:03.804Z,4.05
2023-01-26T22:35:34.209Z,4.11
2023-01-26T22:38:03.832Z,4.06
2023-01-26T22:40:33.503Z,4.05
2023-01-26T22:43:03.406Z,4.07
2023-01-26T22:45:35.770Z,4.07
2023-01-26T22:48:06.918Z,4.01
2023-01-26T22:50:36.601Z,3.96
2023-01-26T22:53:06.261Z,3.96
2023-01-26T22:55:35.975Z,3.91
2023-01-26T22:58:05.694Z,3.83
2023-01-26T23:00:38.339Z,3.98
2023-01-26T23:03:08.474Z,3.95
2023-01-26T23:05:38.166Z,3.81
2023-01-26T23:08:08.700Z,3.76
2023-01-26T23:10:39.012Z,3.72
2023-01-26T23:13:08.810Z,3.92
2023-01-26T23:15:41.147Z,4.01
2023-01-26T23:18:10.814Z,3.88
2023-01-26T23:20:40.448Z,4.05
2023-01-26T23:23:10.126Z,4.08
2023-01-26T23:25:54.729Z,4.10
2023-01-26T23:28:26.787Z,3.89
2023-01-26T23:31:00.596Z,4.15
2023-01-26T23:33:32.347Z,4.14
2023-01-26T23:36:02.902Z,4.16
2023-01-26T23:38:33.457Z,4.16
2023-01-26T23:41:05.418Z,4.09
2023-01-26T23:43:35.532Z,4.07
2023-01-26T23:46:10.036Z,4.15
2023-01-26T23:48:40.632Z,4.06
2023-01-26T23:51:12.270Z,4.18
2023-01-26T23:53:42.380Z,4.14
2023-01-26T23:56:14.355Z,4.19
2023-01-26T23:58:44.065Z,4.12
